Map

Track Data

SID SEASON NUMBER BASIN SUBBASIN NAME ISO_TIME NATURE LAT LON WMO_WIND WMO_PRES WMO_AGENCY TRACK_TYPE DIST2LAND LANDFALL IFLAG USA_AGENCY USA_ATCF_ID USA_LAT USA_LON USA_RECORD USA_STATUS USA_WIND USA_PRES USA_SSHS USA_R34_NE USA_R34_SE USA_R34_SW USA_R34_NW USA_R50_NE USA_R50_SE USA_R50_SW USA_R50_NW USA_R64_NE USA_R64_SE USA_R64_SW USA_R64_NW USA_POCI USA_ROCI USA_RMW USA_EYE TOKYO_LAT TOKYO_LON TOKYO_GRADE TOKYO_WIND TOKYO_PRES TOKYO_R50_DIR TOKYO_R50_LONG TOKYO_R50_SHORT TOKYO_R30_DIR TOKYO_R30_LONG TOKYO_R30_SHORT TOKYO_LAND CMA_LAT CMA_LON CMA_CAT CMA_WIND CMA_PRES HKO_LAT HKO_LON HKO_CAT HKO_WIND HKO_PRES NEWDELHI_LAT NEWDELHI_LON NEWDELHI_GRADE NEWDELHI_WIND NEWDELHI_PRES NEWDELHI_CI NEWDELHI_DP NEWDELHI_POCI REUNION_LAT REUNION_LON REUNION_TYPE REUNION_WIND REUNION_PRES REUNION_TNUM REUNION_CI REUNION_RMW REUNION_R34_NE REUNION_R34_SE REUNION_R34_SW REUNION_R34_NW REUNION_R50_NE REUNION_R50_SE REUNION_R50_SW REUNION_R50_NW REUNION_R64_NE REUNION_R64_SE REUNION_R64_SW REUNION_R64_NW BOM_LAT BOM_LON BOM_TYPE BOM_WIND BOM_PRES BOM_TNUM BOM_CI BOM_RMW BOM_R34_NE BOM_R34_SE BOM_R34_SW BOM_R34_NW BOM_R50_NE BOM_R50_SE BOM_R50_SW BOM_R50_NW BOM_R64_NE BOM_R64_SE BOM_R64_SW BOM_R64_NW BOM_ROCI BOM_POCI BOM_EYE BOM_POS_METHOD BOM_PRES_METHOD NADI_LAT NADI_LON NADI_CAT NADI_WIND NADI_PRES WELLINGTON_LAT WELLINGTON_LON WELLINGTON_WIND WELLINGTON_PRES DS824_LAT DS824_LON DS824_STAGE DS824_WIND DS824_PRES TD9636_LAT TD9636_LON TD9636_STAGE TD9636_WIND TD9636_PRES TD9635_LAT TD9635_LON TD9635_WIND TD9635_PRES TD9635_ROCI NEUMANN_LAT NEUMANN_LON NEUMANN_CLASS NEUMANN_WIND NEUMANN_PRES MLC_LAT MLC_LON MLC_CLASS MLC_WIND MLC_PRES USA_GUST BOM_GUST BOM_GUST_PER REUNION_GUST REUNION_GUST_PER USA_SEAHGT USA_SEARAD_NE USA_SEARAD_SE USA_SEARAD_SW USA_SEARAD_NW STORM_SPEED STORM_DIR
1895180N20124 1895 17 WP MM NOT_NAMED 1895-06-29 04:00:00 NR 20.1000 124.400 main 291 290 __________O___ -1 20.1000 124.400 3 10 338
1895180N20124 1895 17 WP MM NOT_NAMED 1895-06-29 06:00:00 NR 20.4024 124.264 main 306 306 __________P___ -1 20.4024 124.264 3 10 338
1895180N20124 1895 17 WP MM NOT_NAMED 1895-06-29 09:00:00 NR 20.8550 124.073 main 337 317 __________P___ -1 20.8550 124.073 3 10 340
1895180N20124 1895 17 WP MM NOT_NAMED 1895-06-29 12:00:00 NR 21.3053 123.917 main 317 286 __________P___ -1 21.3053 123.917 3 9 345
1895180N20124 1895 17 WP MM NOT_NAMED 1895-06-29 15:00:00 NR 21.7520 123.817 main 286 280 __________P___ -1 21.7520 123.817 3 9 349
1895180N20124 1895 17 WP MM NOT_NAMED 1895-06-29 16:00:00 NR 21.9000 123.800 main 280 265 __________O___ -1 21.9000 123.800 4 9 358
1895180N20124 1895 17 WP MM NOT_NAMED 1895-06-29 18:00:00 NR 22.1941 123.793 main 265 252 __________P___ -1 22.1941 123.793 4 9 3
1895180N20124 1895 17 WP MM NOT_NAMED 1895-06-29 21:00:00 NR 22.6292 123.847 main 252 255 __________P___ -1 22.6292 123.847 4 9 11
1895180N20124 1895 17 WP MM NOT_NAMED 1895-06-30 00:00:00 NR 23.0543 123.965 main 263 249 __________P___ -1 23.0543 123.965 4 9 18
1895180N20124 1895 17 WP MM NOT_NAMED 1895-06-30 03:00:00 NR 23.4662 124.134 main 249 249 __________P___ -1 23.4662 124.134 4 9 22
1895180N20124 1895 17 WP MM NOT_NAMED 1895-06-30 04:00:00 NR 23.6000 124.200 main 254 249 __________O___ -1 23.6000 124.200 4 9 23
1895180N20124 1895 17 WP MM NOT_NAMED 1895-06-30 06:00:00 NR 23.8745 124.322 main 252 252 __________P___ -1 23.8745 124.322 4 9 25
1895180N20124 1895 17 WP MM NOT_NAMED 1895-06-30 09:00:00 NR 24.2739 124.542 main 264 270 __________P___ -1 24.2739 124.542 4 9 29
1895180N20124 1895 17 WP MM NOT_NAMED 1895-06-30 12:00:00 NR 24.6502 124.802 main 284 284 __________P___ -1 24.6502 124.802 4 9 35
1895180N20124 1895 17 WP MM NOT_NAMED 1895-06-30 15:00:00 NR 24.9941 125.096 main 312 312 __________P___ -1 24.9941 125.096 4 9 39
1895180N20124 1895 17 WP MM NOT_NAMED 1895-06-30 16:00:00 NR 25.1000 125.200 main 322 322 __________O___ -1 25.1000 125.200 4 8 44
1895180N20124 1895 17 WP MM NOT_NAMED 1895-06-30 18:00:00 NR 25.2975 125.416 main 343 343 __________P___ -1 25.2975 125.416 4 8 47
1895180N20124 1895 17 WP MM NOT_NAMED 1895-06-30 21:00:00 NR 25.5635 125.757 main 387 387 __________P___ -1 25.5635 125.757 4 8 51
1895180N20124 1895 17 WP MM NOT_NAMED 1895-07-01 00:00:00 NR 25.8030 126.113 main 421 421 __________P___ -1 25.8030 126.113 4 8 54
1895180N20124 1895 17 WP MM NOT_NAMED 1895-07-01 03:00:00 NR 26.0269 126.477 main 464 464 __________P___ -1 26.0269 126.477 4 8 56
1895180N20124 1895 17 WP MM NOT_NAMED 1895-07-01 04:00:00 NR 26.1000 126.600 main 477 __________O___ -1 26.1000 126.600 4 8 56

Digital Typhoon Data and Search

About IBTrACS Database

This database is a web-friendly format of International Best Track Archive for Climate Stewardship (IBTrACS), a global best track data archive curated by NOAA dating back to 1842.

Updated: 2021-10-19